sensor_id;sensor_type;location;lat;lon;timestamp;pressure;altitude;pressure_sealevel;temperature;humidity
76753;BME280;65687;51.308;16.916;2024-02-21T00:02:35;100333.83;;;5.16;98.95
76753;BME280;65687;51.308;16.916;2024-02-21T00:07:36;100326.73;;;5.15;98.96
76753;BME280;65687;51.308;16.916;2024-02-21T00:12:38;100324.79;;;5.15;98.77
76753;BME280;65687;51.308;16.916;2024-02-21T00:17:39;100322.06;;;5.15;98.95
76753;BME280;65687;51.308;16.916;2024-02-21T00:22:42;100320.86;;;5.15;98.82
76753;BME280;65687;51.308;16.916;2024-02-21T00:27:43;100312.46;;;5.15;98.96
76753;BME280;65687;51.308;16.916;2024-02-21T00:32:45;100310.89;;;5.16;98.98
76753;BME280;65687;51.308;16.916;2024-02-21T00:37:47;100304.88;;;5.16;99.02
76753;BME280;65687;51.308;16.916;2024-02-21T00:42:48;100301.59;;;5.17;99.05
76753;BME280;65687;51.308;16.916;2024-02-21T00:47:50;100297.20;;;5.16;99.20
76753;BME280;65687;51.308;16.916;2024-02-21T00:52:52;100298.37;;;5.16;99.10
76753;BME280;65687;51.308;16.916;2024-02-21T00:57:53;100290.95;;;5.16;99.23
76753;BME280;65687;51.308;16.916;2024-02-21T01:02:55;100286.11;;;5.16;99.05
76753;BME280;65687;51.308;16.916;2024-02-21T01:07:57;100273.30;;;5.13;99.15
76753;BME280;65687;51.308;16.916;2024-02-21T01:12:58;100272.46;;;5.12;99.29
76753;BME280;65687;51.308;16.916;2024-02-21T01:18:00;100266.71;;;5.11;99.36
76753;BME280;65687;51.308;16.916;2024-02-21T01:23:02;100261.34;;;5.10;99.68
76753;BME280;65687;51.308;16.916;2024-02-21T01:28:04;100259.98;;;5.10;99.73
76753;BME280;65687;51.308;16.916;2024-02-21T01:33:06;100257.35;;;5.11;99.97
76753;BME280;65687;51.308;16.916;2024-02-21T01:38:07;100252.42;;;5.12;100.00
76753;BME280;65687;51.308;16.916;2024-02-21T01:43:17;100248.03;;;5.12;100.00
76753;BME280;65687;51.308;16.916;2024-02-21T01:48:22;100242.02;;;5.12;100.00
76753;BME280;65687;51.308;16.916;2024-02-21T01:53:30;100232.05;;;5.13;100.00
76753;BME280;65687;51.308;16.916;2024-02-21T01:58:33;100221.61;;;5.13;100.00
76753;BME280;65687;51.308;16.916;2024-02-21T02:03:38;100212.98;;;5.13;100.00
76753;BME280;65687;51.308;16.916;2024-02-21T02:08:40;100210.19;;;5.11;100.00
76753;BME280;65687;51.308;16.916;2024-02-21T02:13:41;100207.88;;;5.12;100.00
76753;BME280;65687;51.308;16.916;2024-02-21T02:18:43;100207.98;;;5.11;100.00
76753;BME280;65687;51.308;16.916;2024-02-21T02:23:45;100199.23;;;5.11;100.00
76753;BME280;65687;51.308;16.916;2024-02-21T02:28:46;100197.50;;;5.08;100.00
76753;BME280;65687;51.308;16.916;2024-02-21T02:33:48;100196.45;;;5.06;100.00
76753;BME280;65687;51.308;16.916;2024-02-21T02:38:50;100187.17;;;5.01;100.00
76753;BME280;65687;51.308;16.916;2024-02-21T02:43:51;100183.04;;;4.98;100.00
76753;BME280;65687;51.308;16.916;2024-02-21T02:48:53;100183.70;;;4.96;100.00
76753;BME280;65687;51.308;16.916;2024-02-21T02:53:55;100181.72;;;4.94;100.00
76753;BME280;65687;51.308;16.916;2024-02-21T02:58:56;100183.96;;;4.93;100.00
76753;BME280;65687;51.308;16.916;2024-02-21T03:03:58;100177.44;;;4.94;100.00
76753;BME280;65687;51.308;16.916;2024-02-21T03:09:00;100174.89;;;4.91;100.00
76753;BME280;65687;51.308;16.916;2024-02-21T03:14:01;100171.23;;;4.92;100.00
76753;BME280;65687;51.308;16.916;2024-02-21T03:19:03;100171.58;;;4.94;100.00
76753;BME280;65687;51.308;16.916;2024-02-21T03:24:05;100161.95;;;4.93;100.00
76753;BME280;65687;51.308;16.916;2024-02-21T03:29:07;100156.91;;;4.94;100.00
76753;BME280;65687;51.308;16.916;2024-02-21T03:34:10;100155.05;;;4.94;100.00
76753;BME280;65687;51.308;16.916;2024-02-21T03:39:12;100148.04;;;4.92;100.00
76753;BME280;65687;51.308;16.916;2024-02-21T03:44:14;100145.36;;;4.92;100.00
76753;BME280;65687;51.308;16.916;2024-02-21T03:49:16;100143.89;;;4.93;100.00
76753;BME280;65687;51.308;16.916;2024-02-21T03:54:17;100143.44;;;4.91;100.00
76753;BME280;65687;51.308;16.916;2024-02-21T03:59:19;100139.80;;;4.92;100.00
76753;BME280;65687;51.308;16.916;2024-02-21T04:04:21;100133.92;;;4.90;100.00
76753;BME280;65687;51.308;16.916;2024-02-21T04:09:23;100133.64;;;4.89;100.00
76753;BME280;65687;51.308;16.916;2024-02-21T04:14:24;100128.34;;;4.87;100.00
76753;BME280;65687;51.308;16.916;2024-02-21T04:19:26;100120.98;;;4.86;100.00
76753;BME280;65687;51.308;16.916;2024-02-21T04:24:28;100117.28;;;4.82;100.00
76753;BME280;65687;51.308;16.916;2024-02-21T04:29:29;100116.96;;;4.81;100.00
76753;BME280;65687;51.308;16.916;2024-02-21T04:34:32;100117.02;;;4.79;100.00
76753;BME280;65687;51.308;16.916;2024-02-21T04:39:33;100113.24;;;4.76;100.00
76753;BME280;65687;51.308;16.916;2024-02-21T04:44:35;100105.85;;;4.73;100.00
76753;BME280;65687;51.308;16.916;2024-02-21T04:49:37;100103.14;;;4.72;100.00
76753;BME280;65687;51.308;16.916;2024-02-21T04:54:38;100098.80;;;4.72;100.00
76753;BME280;65687;51.308;16.916;2024-02-21T04:59:40;100092.09;;;4.70;100.00
76753;BME280;65687;51.308;16.916;2024-02-21T05:04:42;100088.27;;;4.67;100.00
76753;BME280;65687;51.308;16.916;2024-02-21T05:09:44;100083.95;;;4.65;100.00
76753;BME280;65687;51.308;16.916;2024-02-21T05:14:47;100083.32;;;4.66;100.00
76753;BME280;65687;51.308;16.916;2024-02-21T05:19:48;100079.51;;;4.68;100.00
76753;BME280;65687;51.308;16.916;2024-02-21T05:24:50;100078.27;;;4.69;100.00
76753;BME280;65687;51.308;16.916;2024-02-21T05:29:53;100074.72;;;4.70;100.00
76753;BME280;65687;51.308;16.916;2024-02-21T05:34:55;100071.37;;;4.72;100.00
76753;BME280;65687;51.308;16.916;2024-02-21T05:39:56;100073.27;;;4.73;100.00
76753;BME280;65687;51.308;16.916;2024-02-21T05:44:58;100075.77;;;4.75;100.00
76753;BME280;65687;51.308;16.916;2024-02-21T05:50:00;100068.73;;;4.75;100.00
76753;BME280;65687;51.308;16.916;2024-02-21T05:55:02;100067.63;;;4.76;100.00
76753;BME280;65687;51.308;16.916;2024-02-21T06:00:05;100066.77;;;4.77;100.00
76753;BME280;65687;51.308;16.916;2024-02-21T06:05:08;100067.80;;;4.77;100.00
76753;BME280;65687;51.308;16.916;2024-02-21T06:10:10;100068.13;;;4.77;100.00
76753;BME280;65687;51.308;16.916;2024-02-21T06:15:11;100061.21;;;4.76;100.00
76753;BME280;65687;51.308;16.916;2024-02-21T06:20:16;100055.52;;;4.78;100.00
76753;BME280;65687;51.308;16.916;2024-02-21T06:25:18;100053.53;;;4.78;100.00
76753;BME280;65687;51.308;16.916;2024-02-21T06:30:19;100054.48;;;4.80;100.00
76753;BME280;65687;51.308;16.916;2024-02-21T06:35:21;100051.40;;;4.81;100.00
76753;BME280;65687;51.308;16.916;2024-02-21T06:40:23;100053.81;;;4.83;100.00
76753;BME280;65687;51.308;16.916;2024-02-21T06:45:25;100058.13;;;4.85;100.00
76753;BME280;65687;51.308;16.916;2024-02-21T06:50:27;100053.75;;;4.88;100.00
76753;BME280;65687;51.308;16.916;2024-02-21T06:55:28;100054.39;;;4.91;100.00
76753;BME280;65687;51.308;16.916;2024-02-21T07:00:30;100051.66;;;4.94;100.00
76753;BME280;65687;51.308;16.916;2024-02-21T07:05:32;100051.00;;;4.98;100.00
76753;BME280;65687;51.308;16.916;2024-02-21T07:10:33;100048.79;;;5.04;100.00
76753;BME280;65687;51.308;16.916;2024-02-21T07:15:35;100048.28;;;5.07;100.00
76753;BME280;65687;51.308;16.916;2024-02-21T07:20:38;100048.89;;;5.13;100.00
76753;BME280;65687;51.308;16.916;2024-02-21T07:25:39;100043.23;;;5.16;100.00
76753;BME280;65687;51.308;16.916;2024-02-21T07:30:41;100036.95;;;5.19;100.00
76753;BME280;65687;51.308;16.916;2024-02-21T07:35:43;100037.29;;;5.23;100.00
76753;BME280;65687;51.308;16.916;2024-02-21T07:40:46;100032.34;;;5.27;100.00
76753;BME280;65687;51.308;16.916;2024-02-21T07:45:48;100027.15;;;5.33;100.00
76753;BME280;65687;51.308;16.916;2024-02-21T07:50:51;100028.56;;;5.38;100.00
76753;BME280;65687;51.308;16.916;2024-02-21T07:55:52;100025.80;;;5.42;100.00
76753;BME280;65687;51.308;16.916;2024-02-21T08:00:54;100020.80;;;5.45;100.00
76753;BME280;65687;51.308;16.916;2024-02-21T08:05:56;100018.48;;;5.49;100.00
76753;BME280;65687;51.308;16.916;2024-02-21T08:10:59;100009.65;;;5.53;100.00
76753;BME280;65687;51.308;16.916;2024-02-21T08:16:00;100002.40;;;5.57;100.00
76753;BME280;65687;51.308;16.916;2024-02-21T08:21:03;100005.13;;;5.61;100.00
76753;BME280;65687;51.308;16.916;2024-02-21T08:26:05;100004.60;;;5.66;100.00
76753;BME280;65687;51.308;16.916;2024-02-21T08:31:07;100004.48;;;5.72;100.00
76753;BME280;65687;51.308;16.916;2024-02-21T08:36:09;99997.17;;;5.75;100.00
76753;BME280;65687;51.308;16.916;2024-02-21T08:41:11;99994.41;;;5.77;100.00
76753;BME280;65687;51.308;16.916;2024-02-21T08:46:13;99993.05;;;5.78;100.00
76753;BME280;65687;51.308;16.916;2024-02-21T08:51:15;99991.29;;;5.81;100.00
76753;BME280;65687;51.308;16.916;2024-02-21T08:56:17;99987.58;;;5.83;100.00
76753;BME280;65687;51.308;16.916;2024-02-21T09:01:19;99985.39;;;5.85;100.00
76753;BME280;65687;51.308;16.916;2024-02-21T09:06:22;99987.13;;;5.87;100.00
76753;BME280;65687;51.308;16.916;2024-02-21T09:11:24;99984.66;;;5.91;100.00
76753;BME280;65687;51.308;16.916;2024-02-21T09:16:26;99979.48;;;5.97;100.00
76753;BME280;65687;51.308;16.916;2024-02-21T09:21:28;99972.08;;;6.03;100.00
76753;BME280;65687;51.308;16.916;2024-02-21T09:26:30;99969.80;;;6.08;100.00
76753;BME280;65687;51.308;16.916;2024-02-21T09:31:31;99970.91;;;6.13;100.00
76753;BME280;65687;51.308;16.916;2024-02-21T09:36:33;99965.34;;;6.18;100.00
76753;BME280;65687;51.308;16.916;2024-02-21T09:41:36;99962.27;;;6.28;100.00
76753;BME280;65687;51.308;16.916;2024-02-21T09:46:55;99963.70;;;6.35;100.00
76753;BME280;65687;51.308;16.916;2024-02-21T09:52:00;99960.11;;;6.36;100.00
76753;BME280;65687;51.308;16.916;2024-02-21T09:57:06;99965.92;;;6.38;100.00
76753;BME280;65687;51.308;16.916;2024-02-21T10:02:08;99973.73;;;6.39;100.00
76753;BME280;65687;51.308;16.916;2024-02-21T10:07:10;99972.41;;;6.41;100.00
76753;BME280;65687;51.308;16.916;2024-02-21T10:12:13;99964.66;;;6.42;100.00
76753;BME280;65687;51.308;16.916;2024-02-21T10:17:16;99960.73;;;6.41;100.00
76753;BME280;65687;51.308;16.916;2024-02-21T10:22:20;99964.46;;;6.42;100.00
76753;BME280;65687;51.308;16.916;2024-02-21T10:27:28;99969.77;;;6.41;100.00
76753;BME280;65687;51.308;16.916;2024-02-21T10:32:30;99964.15;;;6.42;100.00
76753;BME280;65687;51.308;16.916;2024-02-21T10:37:32;99958.71;;;6.43;100.00
76753;BME280;65687;51.308;16.916;2024-02-21T10:42:35;99955.30;;;6.43;100.00
76753;BME280;65687;51.308;16.916;2024-02-21T10:47:39;99945.05;;;6.43;100.00
76753;BME280;65687;51.308;16.916;2024-02-21T10:52:56;99941.14;;;6.44;100.00
76753;BME280;65687;51.308;16.916;2024-02-21T10:58:02;99931.95;;;6.48;100.00
76753;BME280;65687;51.308;16.916;2024-02-21T11:03:05;99928.55;;;6.52;100.00
76753;BME280;65687;51.308;16.916;2024-02-21T11:08:07;99925.67;;;6.56;100.00
76753;BME280;65687;51.308;16.916;2024-02-21T11:13:10;99920.02;;;6.61;100.00
76753;BME280;65687;51.308;16.916;2024-02-21T11:18:23;99906.45;;;6.65;100.00
76753;BME280;65687;51.308;16.916;2024-02-21T11:23:26;99899.09;;;6.70;100.00
76753;BME280;65687;51.308;16.916;2024-02-21T11:28:28;99895.35;;;6.73;100.00
76753;BME280;65687;51.308;16.916;2024-02-21T11:33:30;99878.60;;;6.76;100.00
76753;BME280;65687;51.308;16.916;2024-02-21T11:38:32;99877.58;;;6.77;99.99
76753;BME280;65687;51.308;16.916;2024-02-21T11:43:33;99871.71;;;6.80;99.99
76753;BME280;65687;51.308;16.916;2024-02-21T11:48:35;99864.70;;;6.82;100.00
76753;BME280;65687;51.308;16.916;2024-02-21T11:53:37;99857.30;;;6.86;100.00
76753;BME280;65687;51.308;16.916;2024-02-21T11:58:39;99861.34;;;6.91;99.99
76753;BME280;65687;51.308;16.916;2024-02-21T12:03:44;99849.98;;;6.95;100.00
76753;BME280;65687;51.308;16.916;2024-02-21T12:08:50;99842.08;;;7.02;100.00
76753;BME280;65687;51.308;16.916;2024-02-21T12:14:01;99840.84;;;7.10;99.77
76753;BME280;65687;51.308;16.916;2024-02-21T12:19:04;99834.55;;;7.17;98.99
76753;BME280;65687;51.308;16.916;2024-02-21T12:29:15;99819.58;;;7.23;98.69
76753;BME280;65687;51.308;16.916;2024-02-21T12:34:17;99809.31;;;7.25;98.29
76753;BME280;65687;51.308;16.916;2024-02-21T12:39:19;99805.39;;;7.26;98.11
76753;BME280;65687;51.308;16.916;2024-02-21T12:44:21;99801.90;;;7.27;98.04
76753;BME280;65687;51.308;16.916;2024-02-21T12:49:23;99800.39;;;7.27;97.83
76753;BME280;65687;51.308;16.916;2024-02-21T12:54:26;99790.48;;;7.27;98.02
76753;BME280;65687;51.308;16.916;2024-02-21T12:59:28;99784.04;;;7.29;97.52
76753;BME280;65687;51.308;16.916;2024-02-21T13:04:30;99781.94;;;7.31;96.59
76753;BME280;65687;51.308;16.916;2024-02-21T13:09:32;99771.76;;;7.34;95.26
76753;BME280;65687;51.308;16.916;2024-02-21T13:14:34;99762.30;;;7.39;94.38
76753;BME280;65687;51.308;16.916;2024-02-21T13:19:36;99756.37;;;7.42;93.77
76753;BME280;65687;51.308;16.916;2024-02-21T13:24:38;99748.21;;;7.46;93.59
76753;BME280;65687;51.308;16.916;2024-02-21T13:29:40;99739.58;;;7.52;93.09
76753;BME280;65687;51.308;16.916;2024-02-21T13:34:41;99734.51;;;7.62;92.35
76753;BME280;65687;51.308;16.916;2024-02-21T13:39:43;99721.30;;;7.74;90.49
76753;BME280;65687;51.308;16.916;2024-02-21T13:44:45;99721.54;;;7.87;89.45
76753;BME280;65687;51.308;16.916;2024-02-21T13:49:47;99710.34;;;7.94;89.16
76753;BME280;65687;51.308;16.916;2024-02-21T13:54:49;99705.89;;;7.98;87.85
76753;BME280;65687;51.308;16.916;2024-02-21T13:59:51;99699.30;;;7.98;87.27
76753;BME280;65687;51.308;16.916;2024-02-21T14:04:53;99700.63;;;7.95;87.08
76753;BME280;65687;51.308;16.916;2024-02-21T14:09:54;99691.16;;;7.92;87.89
76753;BME280;65687;51.308;16.916;2024-02-21T14:14:56;99686.02;;;7.88;87.71
76753;BME280;65687;51.308;16.916;2024-02-21T14:19:59;99688.14;;;7.85;88.04
76753;BME280;65687;51.308;16.916;2024-02-21T14:25:01;99684.38;;;7.82;88.59
76753;BME280;65687;51.308;16.916;2024-02-21T14:30:04;99678.29;;;7.80;88.74
76753;BME280;65687;51.308;16.916;2024-02-21T14:35:12;99668.98;;;7.79;89.05
76753;BME280;65687;51.308;16.916;2024-02-21T14:40:14;99665.13;;;7.79;88.67
76753;BME280;65687;51.308;16.916;2024-02-21T14:45:16;99667.95;;;7.79;88.94
76753;BME280;65687;51.308;16.916;2024-02-21T14:50:17;99665.09;;;7.78;88.81
76753;BME280;65687;51.308;16.916;2024-02-21T14:55:20;99666.13;;;7.79;88.88
76753;BME280;65687;51.308;16.916;2024-02-21T15:00:21;99658.54;;;7.79;88.68
76753;BME280;65687;51.308;16.916;2024-02-21T15:05:31;99658.91;;;7.79;88.43
76753;BME280;65687;51.308;16.916;2024-02-21T15:10:33;99656.04;;;7.79;88.84
76753;BME280;65687;51.308;16.916;2024-02-21T15:15:36;99646.65;;;7.79;88.57
76753;BME280;65687;51.308;16.916;2024-02-21T15:20:38;99637.83;;;7.80;88.16
76753;BME280;65687;51.308;16.916;2024-02-21T15:25:39;99635.95;;;7.82;88.12
76753;BME280;65687;51.308;16.916;2024-02-21T15:30:41;99630.88;;;7.84;87.69
76753;BME280;65687;51.308;16.916;2024-02-21T15:35:43;99623.96;;;7.86;87.61
76753;BME280;65687;51.308;16.916;2024-02-21T15:40:45;99614.84;;;7.88;87.35
76753;BME280;65687;51.308;16.916;2024-02-21T15:45:46;99616.75;;;7.89;87.22
76753;BME280;65687;51.308;16.916;2024-02-21T15:50:48;99612.71;;;7.89;86.93
76753;BME280;65687;51.308;16.916;2024-02-21T15:55:50;99613.09;;;7.87;87.19
76753;BME280;65687;51.308;16.916;2024-02-21T16:00:52;99607.33;;;7.84;87.16
76753;BME280;65687;51.308;16.916;2024-02-21T16:05:54;99610.70;;;7.79;86.96
76753;BME280;65687;51.308;16.916;2024-02-21T16:10:56;99607.27;;;7.76;86.68
76753;BME280;65687;51.308;16.916;2024-02-21T16:15:58;99600.50;;;7.71;87.05
76753;BME280;65687;51.308;16.916;2024-02-21T16:20:59;99596.17;;;7.64;87.17
76753;BME280;65687;51.308;16.916;2024-02-21T16:26:01;99593.71;;;7.56;87.01
76753;BME280;65687;51.308;16.916;2024-02-21T16:31:03;99598.92;;;7.49;87.03
76753;BME280;65687;51.308;16.916;2024-02-21T16:36:05;99599.10;;;7.40;87.16
76753;BME280;65687;51.308;16.916;2024-02-21T16:41:08;99593.30;;;7.32;87.24
76753;BME280;65687;51.308;16.916;2024-02-21T16:46:15;99594.35;;;7.12;87.66
76753;BME280;65687;51.308;16.916;2024-02-21T16:51:17;99590.05;;;6.88;88.23
76753;BME280;65687;51.308;16.916;2024-02-21T16:56:19;99588.45;;;6.76;88.77
76753;BME280;65687;51.308;16.916;2024-02-21T17:01:21;99583.34;;;6.64;89.21
76753;BME280;65687;51.308;16.916;2024-02-21T17:06:23;99580.84;;;6.45;89.83
76753;BME280;65687;51.308;16.916;2024-02-21T17:11:25;99580.78;;;6.16;90.50
76753;BME280;65687;51.308;16.916;2024-02-21T17:16:26;99575.47;;;5.95;91.40
76753;BME280;65687;51.308;16.916;2024-02-21T17:21:28;99573.56;;;5.84;92.03
76753;BME280;65687;51.308;16.916;2024-02-21T17:26:30;99565.92;;;5.70;92.34
76753;BME280;65687;51.308;16.916;2024-02-21T17:31:32;99559.09;;;5.46;92.94
76753;BME280;65687;51.308;16.916;2024-02-21T17:36:33;99547.48;;;5.39;93.46
76753;BME280;65687;51.308;16.916;2024-02-21T17:41:35;99540.33;;;5.23;93.47
76753;BME280;65687;51.308;16.916;2024-02-21T17:46:43;99530.68;;;5.03;94.14
76753;BME280;65687;51.308;16.916;2024-02-21T17:51:45;99512.74;;;4.96;94.56
76753;BME280;65687;51.308;16.916;2024-02-21T17:56:47;99503.01;;;4.90;94.58
76753;BME280;65687;51.308;16.916;2024-02-21T18:01:49;99502.18;;;4.80;94.93
76753;BME280;65687;51.308;16.916;2024-02-21T18:06:50;99492.89;;;4.75;95.30
76753;BME280;65687;51.308;16.916;2024-02-21T18:11:52;99481.29;;;4.68;95.34
76753;BME280;65687;51.308;16.916;2024-02-21T18:16:54;99478.73;;;4.63;95.68
76753;BME280;65687;51.308;16.916;2024-02-21T18:21:56;99472.23;;;4.59;96.07
76753;BME280;65687;51.308;16.916;2024-02-21T18:26:58;99467.27;;;4.54;96.43
76753;BME280;65687;51.308;16.916;2024-02-21T18:32:00;99456.96;;;4.47;96.57
76753;BME280;65687;51.308;16.916;2024-02-21T18:37:02;99463.55;;;4.40;96.97
76753;BME280;65687;51.308;16.916;2024-02-21T18:42:04;99458.90;;;4.36;97.33
76753;BME280;65687;51.308;16.916;2024-02-21T18:47:08;99455.52;;;4.31;97.64
76753;BME280;65687;51.308;16.916;2024-02-21T18:52:10;99451.52;;;4.28;98.03
76753;BME280;65687;51.308;16.916;2024-02-21T18:57:12;99453.92;;;4.26;98.00
76753;BME280;65687;51.308;16.916;2024-02-21T19:02:16;99448.77;;;4.22;97.68
76753;BME280;65687;51.308;16.916;2024-02-21T19:07:18;99445.35;;;4.19;97.91
76753;BME280;65687;51.308;16.916;2024-02-21T19:12:20;99437.50;;;4.16;98.29
76753;BME280;65687;51.308;16.916;2024-02-21T19:17:22;99426.27;;;4.11;98.36
76753;BME280;65687;51.308;16.916;2024-02-21T19:22:23;99418.14;;;4.10;98.55
76753;BME280;65687;51.308;16.916;2024-02-21T19:27:30;99408.45;;;4.04;98.67
76753;BME280;65687;51.308;16.916;2024-02-21T19:32:32;99407.98;;;4.03;98.84
76753;BME280;65687;51.308;16.916;2024-02-21T19:37:33;99402.52;;;4.01;98.71
76753;BME280;65687;51.308;16.916;2024-02-21T19:42:36;99395.33;;;3.99;98.75
76753;BME280;65687;51.308;16.916;2024-02-21T19:47:39;99392.39;;;3.96;98.84
76753;BME280;65687;51.308;16.916;2024-02-21T19:52:43;99383.48;;;3.93;98.97
76753;BME280;65687;51.308;16.916;2024-02-21T19:57:45;99375.16;;;3.88;99.04
76753;BME280;65687;51.308;16.916;2024-02-21T20:02:48;99375.02;;;3.86;99.35
76753;BME280;65687;51.308;16.916;2024-02-21T20:07:50;99368.91;;;3.83;99.33
76753;BME280;65687;51.308;16.916;2024-02-21T20:12:52;99360.46;;;3.82;99.29
76753;BME280;65687;51.308;16.916;2024-02-21T20:17:55;99352.19;;;3.81;99.46
76753;BME280;65687;51.308;16.916;2024-02-21T20:22:57;99341.35;;;3.79;99.70
76753;BME280;65687;51.308;16.916;2024-02-21T20:27:59;99331.80;;;3.76;99.71
76753;BME280;65687;51.308;16.916;2024-02-21T20:33:02;99320.85;;;3.75;99.90
76753;BME280;65687;51.308;16.916;2024-02-21T20:38:03;99308.83;;;3.75;99.97
76753;BME280;65687;51.308;16.916;2024-02-21T20:43:06;99306.79;;;3.75;100.00
76753;BME280;65687;51.308;16.916;2024-02-21T20:48:08;99297.25;;;3.85;100.00
76753;BME280;65687;51.308;16.916;2024-02-21T20:53:10;99278.39;;;3.91;99.98
76753;BME280;65687;51.308;16.916;2024-02-21T20:58:12;99270.81;;;3.97;100.00
76753;BME280;65687;51.308;16.916;2024-02-21T21:03:14;99262.00;;;4.03;100.00
76753;BME280;65687;51.308;16.916;2024-02-21T21:08:15;99250.81;;;4.12;100.00
76753;BME280;65687;51.308;16.916;2024-02-21T21:13:19;99240.17;;;4.25;99.85
76753;BME280;65687;51.308;16.916;2024-02-21T21:18:21;99232.77;;;4.26;99.29
76753;BME280;65687;51.308;16.916;2024-02-21T21:23:22;99227.98;;;4.22;98.93
76753;BME280;65687;51.308;16.916;2024-02-21T21:28:24;99218.59;;;4.18;98.97
76753;BME280;65687;51.308;16.916;2024-02-21T21:33:26;99215.16;;;4.15;99.05
76753;BME280;65687;51.308;16.916;2024-02-21T21:38:29;99201.02;;;4.11;98.85
76753;BME280;65687;51.308;16.916;2024-02-21T21:43:30;99194.21;;;4.02;98.90
76753;BME280;65687;51.308;16.916;2024-02-21T21:48:32;99183.11;;;3.97;99.25
76753;BME280;65687;51.308;16.916;2024-02-21T21:53:36;99172.83;;;3.92;99.22
76753;BME280;65687;51.308;16.916;2024-02-21T21:58:38;99166.46;;;3.96;100.00
76753;BME280;65687;51.308;16.916;2024-02-21T22:03:41;99162.39;;;4.05;99.92
76753;BME280;65687;51.308;16.916;2024-02-21T22:08:42;99145.83;;;4.07;99.75
76753;BME280;65687;51.308;16.916;2024-02-21T22:13:44;99137.33;;;4.09;99.82
76753;BME280;65687;51.308;16.916;2024-02-21T22:18:46;99128.45;;;4.11;99.75
76753;BME280;65687;51.308;16.916;2024-02-21T22:23:48;99122.67;;;4.18;99.83
76753;BME280;65687;51.308;16.916;2024-02-21T22:28:50;99120.06;;;4.26;99.52
76753;BME280;65687;51.308;16.916;2024-02-21T22:33:51;99117.33;;;4.29;99.41
76753;BME280;65687;51.308;16.916;2024-02-21T22:38:54;99107.60;;;4.29;99.19
76753;BME280;65687;51.308;16.916;2024-02-21T22:43:56;99100.40;;;4.33;99.29
76753;BME280;65687;51.308;16.916;2024-02-21T22:49:00;99101.59;;;4.40;99.05
76753;BME280;65687;51.308;16.916;2024-02-21T22:54:02;99096.38;;;4.37;98.96
76753;BME280;65687;51.308;16.916;2024-02-21T22:59:04;99096.20;;;4.39;99.11
76753;BME280;65687;51.308;16.916;2024-02-21T23:04:06;99092.96;;;4.52;99.00
76753;BME280;65687;51.308;16.916;2024-02-21T23:09:08;99089.48;;;4.58;98.61
76753;BME280;65687;51.308;16.916;2024-02-21T23:14:09;99080.09;;;4.62;98.28
76753;BME280;65687;51.308;16.916;2024-02-21T23:19:11;99075.60;;;4.58;98.29
76753;BME280;65687;51.308;16.916;2024-02-21T23:24:13;99075.08;;;4.63;98.36
76753;BME280;65687;51.308;16.916;2024-02-21T23:29:14;99075.80;;;4.68;98.13
76753;BME280;65687;51.308;16.916;2024-02-21T23:34:16;99072.02;;;4.69;97.94
76753;BME280;65687;51.308;16.916;2024-02-21T23:39:18;99062.20;;;4.69;97.64
76753;BME280;65687;51.308;16.916;2024-02-21T23:44:19;99057.30;;;4.69;97.68
76753;BME280;65687;51.308;16.916;2024-02-21T23:49:21;99044.86;;;4.68;97.57
76753;BME280;65687;51.308;16.916;2024-02-21T23:54:25;99037.74;;;4.62;97.60
76753;BME280;65687;51.308;16.916;2024-02-21T23:59:26;99021.52;;;4.60;97.65
